createdAt,value
2023-02-19T00:01:29.987Z,90.84
2023-02-19T00:04:03.567Z,90.94
2023-02-19T00:06:37.009Z,90.87
2023-02-19T00:09:09.626Z,91.79
2023-02-19T00:11:42.236Z,94.37
2023-02-19T00:14:18.002Z,95.30
2023-02-19T00:16:52.816Z,95.88
2023-02-19T00:19:25.220Z,93.72
2023-02-19T00:21:57.320Z,93.04
2023-02-19T00:24:29.073Z,93.67
2023-02-19T00:27:02.595Z,93.72
2023-02-19T00:29:34.439Z,92.75
2023-02-19T00:32:08.930Z,91.58
2023-02-19T00:34:40.510Z,90.51
2023-02-19T00:37:11.679Z,93.91
2023-02-19T00:39:43.831Z,96.12
2023-02-19T00:42:15.482Z,96.65
2023-02-19T00:44:49.432Z,97.22
2023-02-19T00:48:09.219Z,96.91
2023-02-19T00:50:44.420Z,96.22
2023-02-19T00:53:16.729Z,95.66
2023-02-19T00:55:49.158Z,94.62
2023-02-19T00:58:21.704Z,93.68
2023-02-19T01:00:54.537Z,94.13
2023-02-19T01:03:36.943Z,96.99
2023-02-19T01:06:14.378Z,97.72
2023-02-19T01:08:47.279Z,100.00
2023-02-19T01:11:20.840Z,100.00
2023-02-19T01:13:53.093Z,99.70
2023-02-19T01:16:27.943Z,98.57
2023-02-19T01:19:01.434Z,98.35
2023-02-19T01:21:36.920Z,97.79
2023-02-19T01:24:09.374Z,98.71
2023-02-19T01:26:42.196Z,100.00
2023-02-19T01:29:14.394Z,100.00
2023-02-19T01:31:47.568Z,100.00
2023-02-19T01:34:19.703Z,99.97
2023-02-19T01:36:55.010Z,97.98
2023-02-19T01:39:27.314Z,99.11
2023-02-19T01:42:00.036Z,99.33
2023-02-19T01:45:19.006Z,99.10
2023-02-19T01:47:57.155Z,100.00
2023-02-19T01:50:33.192Z,100.00
2023-02-19T01:53:12.449Z,100.00
2023-02-19T01:55:45.956Z,100.00
2023-02-19T01:58:19.838Z,100.00
2023-02-19T02:00:52.509Z,100.00
2023-02-19T02:03:25.615Z,100.00
2023-02-19T02:06:04.174Z,100.00
2023-02-19T02:08:52.555Z,100.00
2023-02-19T02:11:25.239Z,100.00
2023-02-19T02:13:58.466Z,100.00
2023-02-19T02:16:38.058Z,100.00
2023-02-19T02:19:28.107Z,100.00
2023-02-19T02:22:08.696Z,100.00
2023-02-19T02:25:13.800Z,100.00
2023-02-19T02:27:58.520Z,100.00
2023-02-19T02:30:41.140Z,100.00
2023-02-19T02:33:30.878Z,100.00
2023-02-19T02:36:08.499Z,100.00
2023-02-19T02:38:44.463Z,99.51
2023-02-19T02:41:18.846Z,99.11
2023-02-19T02:43:51.165Z,98.90
2023-02-19T02:46:31.758Z,99.30
2023-02-19T02:49:08.785Z,98.42
2023-02-19T02:51:45.358Z,98.09
2023-02-19T02:54:32.516Z,97.99
2023-02-19T02:57:05.897Z,98.30
2023-02-19T02:59:40.998Z,98.33
2023-02-19T03:02:19.354Z,98.53
2023-02-19T03:05:10.498Z,99.46
2023-02-19T03:07:49.678Z,97.89
2023-02-19T03:10:27.537Z,96.35
2023-02-19T03:13:15.657Z,97.20
2023-02-19T03:16:04.465Z,98.58
2023-02-19T03:18:56.486Z,98.14
2023-02-19T03:21:32.004Z,99.56
2023-02-19T03:24:18.781Z,98.20
2023-02-19T03:26:54.202Z,97.42
2023-02-19T03:29:30.374Z,97.18
2023-02-19T03:32:06.599Z,97.91
2023-02-19T03:34:47.262Z,97.54
2023-02-19T03:37:27.332Z,98.84
2023-02-19T03:40:00.815Z,98.09
2023-02-19T03:42:44.642Z,97.48
2023-02-19T03:45:36.922Z,98.75
2023-02-19T03:48:25.778Z,98.75
2023-02-19T03:51:19.059Z,97.38
2023-02-19T03:54:06.061Z,96.14
2023-02-19T03:56:47.085Z,96.59
2023-02-19T03:59:24.481Z,97.75
2023-02-19T04:02:02.359Z,96.47
2023-02-19T04:04:39.830Z,98.16
2023-02-19T04:07:30.117Z,97.40
2023-02-19T04:10:02.719Z,97.07
2023-02-19T04:12:37.204Z,98.04
2023-02-19T04:15:13.498Z,97.59
2023-02-19T04:17:51.381Z,96.79
2023-02-19T04:20:26.419Z,97.54
2023-02-19T04:23:02.022Z,97.51
2023-02-19T04:25:36.023Z,98.39
2023-02-19T04:28:08.602Z,98.66
2023-02-19T04:30:41.079Z,98.81
2023-02-19T04:33:13.676Z,99.21
2023-02-19T04:35:45.985Z,99.86
2023-02-19T04:38:21.264Z,98.27
2023-02-19T04:40:53.503Z,98.96
2023-02-19T04:43:26.034Z,98.58
2023-02-19T04:45:58.236Z,98.25
2023-02-19T04:48:30.976Z,99.03
2023-02-19T04:51:03.053Z,98.26
2023-02-19T04:53:38.737Z,98.71
2023-02-19T04:56:11.737Z,100.00
2023-02-19T04:58:45.074Z,99.90
2023-02-19T05:01:17.758Z,100.00
2023-02-19T05:03:50.335Z,100.00
2023-02-19T05:06:22.935Z,100.00
2023-02-19T05:08:58.235Z,100.00
2023-02-19T05:11:30.615Z,100.00
2023-02-19T05:14:02.976Z,100.00
2023-02-19T05:16:35.375Z,100.00
2023-02-19T05:19:10.452Z,100.00
2023-02-19T05:21:43.473Z,100.00
2023-02-19T05:24:22.193Z,100.00
2023-02-19T05:26:54.213Z,100.00
2023-02-19T05:29:26.953Z,100.00
2023-02-19T05:31:59.286Z,100.00
2023-02-19T05:34:31.924Z,100.00
2023-02-19T05:37:04.173Z,100.00
2023-02-19T05:39:39.552Z,100.00
2023-02-19T05:42:11.809Z,100.00
2023-02-19T05:44:44.283Z,100.00
2023-02-19T05:47:16.667Z,100.00
2023-02-19T05:49:49.178Z,100.00
2023-02-19T05:52:21.441Z,100.00
2023-02-19T05:54:56.933Z,100.00
2023-02-19T06:00:31.635Z,100.00
2023-02-19T06:03:04.138Z,100.00
2023-02-19T06:05:36.632Z,100.00
2023-02-19T06:08:09.014Z,100.00
2023-02-19T06:10:44.913Z,100.00
2023-02-19T06:13:17.885Z,100.00
2023-02-19T06:15:50.655Z,100.00
2023-02-19T06:18:23.239Z,100.00
2023-02-19T06:20:55.812Z,100.00
2023-02-19T06:23:30.781Z,100.00
2023-02-19T06:26:15.746Z,100.00
2023-02-19T06:28:49.557Z,100.00
2023-02-19T06:31:26.265Z,100.00
2023-02-19T06:33:58.624Z,100.00
2023-02-19T06:36:31.467Z,98.93
2023-02-19T06:39:04.800Z,98.01
2023-02-19T06:41:40.266Z,97.82
2023-02-19T06:44:12.570Z,97.63
2023-02-19T06:46:45.195Z,98.47
2023-02-19T06:49:17.560Z,98.54
2023-02-19T06:51:50.212Z,98.34
2023-02-19T06:54:22.189Z,97.92
2023-02-19T06:56:59.419Z,96.60
2023-02-19T06:59:31.696Z,95.08
2023-02-19T07:02:03.890Z,96.61
2023-02-19T07:04:36.477Z,97.53
2023-02-19T07:07:08.787Z,96.34
2023-02-19T07:09:40.742Z,96.68
2023-02-19T07:12:20.158Z,96.33
2023-02-19T07:14:51.552Z,95.50
2023-02-19T07:17:23.701Z,94.77
2023-02-19T07:20:24.200Z,93.76
2023-02-19T07:22:56.734Z,91.39
2023-02-19T07:25:28.372Z,94.43
2023-02-19T07:28:03.101Z,94.08
2023-02-19T07:30:34.870Z,94.69
2023-02-19T07:33:10.095Z,93.54
2023-02-19T07:35:48.422Z,94.11
2023-02-19T07:38:23.116Z,94.28
2023-02-19T07:40:55.377Z,95.10
2023-02-19T07:43:32.714Z,95.78
2023-02-19T07:46:06.667Z,94.64
2023-02-19T07:48:48.624Z,94.05
2023-02-19T07:51:23.064Z,93.58
2023-02-19T07:53:55.588Z,92.56
2023-02-19T07:56:29.275Z,92.01
2023-02-19T07:59:04.139Z,91.59
2023-02-19T08:01:48.246Z,92.23
2023-02-19T08:04:20.305Z,93.72
2023-02-19T08:06:52.101Z,91.56
2023-02-19T08:09:24.466Z,91.24
2023-02-19T08:12:30.984Z,91.80
2023-02-19T08:15:05.728Z,90.74
2023-02-19T08:17:37.573Z,89.51
2023-02-19T08:20:10.357Z,88.02
2023-02-19T08:22:42.463Z,88.85
2023-02-19T08:25:14.426Z,89.05
2023-02-19T08:27:46.425Z,87.02
2023-02-19T08:30:21.455Z,88.57
2023-02-19T08:32:53.359Z,88.40
2023-02-19T08:35:25.835Z,86.91
2023-02-19T08:37:59.339Z,88.28
2023-02-19T08:40:31.584Z,88.41
2023-02-19T08:43:06.732Z,87.74
2023-02-19T08:45:41.911Z,87.78
2023-02-19T08:48:14.640Z,85.99
2023-02-19T08:50:46.742Z,85.11
2023-02-19T08:53:18.761Z,85.66
2023-02-19T08:55:51.311Z,85.58
2023-02-19T08:58:23.371Z,84.80
2023-02-19T09:00:58.832Z,83.76
2023-02-19T09:03:31.254Z,83.14
2023-02-19T09:06:03.549Z,83.02
2023-02-19T09:08:35.769Z,84.78
2023-02-19T09:11:09.596Z,83.28
2023-02-19T09:13:42.217Z,83.10
2023-02-19T09:16:17.571Z,83.19
2023-02-19T09:18:49.811Z,80.22
2023-02-19T09:24:25.936Z,81.07
2023-02-19T09:26:59.074Z,81.20
2023-02-19T09:29:32.412Z,79.95
2023-02-19T09:32:07.871Z,81.17
2023-02-19T09:34:40.498Z,80.97
2023-02-19T09:37:13.160Z,80.96
2023-02-19T09:39:45.418Z,79.37
2023-02-19T09:42:21.877Z,79.91
2023-02-19T09:44:58.817Z,80.07
2023-02-19T09:47:36.663Z,78.38
2023-02-19T09:50:13.621Z,76.37
2023-02-19T09:52:51.856Z,74.00
2023-02-19T09:55:35.034Z,72.73
2023-02-19T09:58:21.255Z,72.13
2023-02-19T10:00:54.453Z,72.59
2023-02-19T10:03:35.506Z,70.75
2023-02-19T10:06:11.565Z,70.23
2023-02-19T10:08:45.531Z,68.79
2023-02-19T10:11:19.487Z,69.92
2023-02-19T10:13:55.095Z,67.32
2023-02-19T10:16:30.408Z,67.60
2023-02-19T10:19:05.611Z,65.29
2023-02-19T10:21:37.868Z,64.97
2023-02-19T10:24:12.211Z,65.29
2023-02-19T10:26:44.387Z,64.29
2023-02-19T10:29:16.815Z,64.59
2023-02-19T10:31:49.403Z,67.25
2023-02-19T10:34:25.912Z,67.36
2023-02-19T10:36:58.210Z,68.76
2023-02-19T10:39:46.390Z,66.11
2023-02-19T10:42:24.668Z,66.91
2023-02-19T10:45:02.196Z,66.60
2023-02-19T10:47:36.250Z,64.87
2023-02-19T10:50:29.973Z,63.92
2023-02-19T10:53:03.918Z,62.14
2023-02-19T10:55:40.971Z,60.91
2023-02-19T10:58:27.590Z,61.61
2023-02-19T11:01:19.860Z,62.84
2023-02-19T11:03:54.590Z,62.04
2023-02-19T11:06:30.715Z,63.13
2023-02-19T11:09:04.491Z,62.46
2023-02-19T11:11:39.993Z,64.10
2023-02-19T11:14:20.174Z,60.67
2023-02-19T11:16:56.516Z,59.62
2023-02-19T11:19:42.795Z,60.65
2023-02-19T11:22:33.979Z,61.76
2023-02-19T11:25:10.149Z,62.49
2023-02-19T11:27:57.921Z,59.92
2023-02-19T11:30:42.774Z,58.45
2023-02-19T11:33:33.069Z,60.82
2023-02-19T11:36:30.465Z,60.10
2023-02-19T11:39:23.012Z,56.45
2023-02-19T11:42:12.500Z,57.38
2023-02-19T11:44:57.133Z,58.60
2023-02-19T11:47:57.321Z,57.23
2023-02-19T11:50:43.056Z,57.73
2023-02-19T11:53:24.317Z,55.29
2023-02-19T11:56:19.303Z,56.71
2023-02-19T11:59:08.115Z,57.15
2023-02-19T12:02:07.640Z,57.63
2023-02-19T12:05:07.456Z,56.67
2023-02-19T12:08:24.077Z,56.24
2023-02-19T12:11:23.492Z,53.99
2023-02-19T12:14:28.291Z,54.13
2023-02-19T12:17:07.492Z,56.32
2023-02-19T12:20:00.791Z,58.10
2023-02-19T12:22:34.472Z,56.42
2023-02-19T12:25:32.193Z,59.16
2023-02-19T12:28:45.213Z,56.85
2023-02-19T12:31:52.301Z,56.04
2023-02-19T12:34:43.872Z,56.02
2023-02-19T12:37:28.008Z,55.99
2023-02-19T12:40:19.050Z,55.96
2023-02-19T12:43:05.191Z,54.79
2023-02-19T12:45:46.184Z,55.26
2023-02-19T12:48:28.511Z,55.72
2023-02-19T12:51:06.391Z,56.26
2023-02-19T12:53:45.437Z,56.24
2023-02-19T12:56:22.492Z,55.01
2023-02-19T12:59:02.441Z,54.59
2023-02-19T13:01:47.157Z,55.44
2023-02-19T13:04:31.431Z,55.19
2023-02-19T13:07:09.308Z,54.20
2023-02-19T13:09:47.421Z,54.00
2023-02-19T13:12:26.060Z,54.69
2023-02-19T13:15:01.978Z,53.54
2023-02-19T13:17:42.424Z,51.09
2023-02-19T13:20:22.452Z,52.18
2023-02-19T13:23:15.902Z,52.63
2023-02-19T13:26:03.282Z,53.71
2023-02-19T13:28:52.808Z,53.90
2023-02-19T13:31:41.716Z,53.40
2023-02-19T13:34:25.827Z,54.70
2023-02-19T13:36:59.278Z,55.42
2023-02-19T13:39:31.526Z,56.67
2023-02-19T13:42:04.167Z,55.01
2023-02-19T13:44:37.581Z,53.06
2023-02-19T13:47:53.545Z,53.07
2023-02-19T13:50:30.299Z,53.13
2023-02-19T13:53:03.609Z,52.80
2023-02-19T13:55:53.284Z,53.18
2023-02-19T13:58:56.056Z,51.48
2023-02-19T14:01:57.758Z,54.24
2023-02-19T14:04:47.748Z,54.37
2023-02-19T14:07:39.986Z,55.82
2023-02-19T14:10:16.780Z,55.72
2023-02-19T14:12:48.978Z,54.91
2023-02-19T14:15:44.348Z,54.22
2023-02-19T14:18:46.940Z,53.21
2023-02-19T14:21:26.210Z,54.46
2023-02-19T14:24:02.078Z,53.32
2023-02-19T14:26:36.943Z,53.18
2023-02-19T14:29:12.346Z,53.49
2023-02-19T14:31:48.640Z,53.58
2023-02-19T14:34:23.213Z,52.66
2023-02-19T14:37:00.948Z,52.15
2023-02-19T14:39:40.625Z,51.51
2023-02-19T14:42:20.983Z,52.57
2023-02-19T14:44:57.125Z,52.94
2023-02-19T14:47:35.206Z,52.34
2023-02-19T14:50:10.568Z,53.10
2023-02-19T14:52:47.002Z,52.74
2023-02-19T14:55:28.306Z,50.54
2023-02-19T14:58:03.608Z,52.15
2023-02-19T15:00:38.748Z,53.04
2023-02-19T15:03:29.050Z,51.85
2023-02-19T15:06:05.504Z,52.41
2023-02-19T15:08:41.182Z,53.18
2023-02-19T15:11:22.243Z,53.61
2023-02-19T15:13:59.210Z,52.82
2023-02-19T15:16:32.773Z,51.37
2023-02-19T15:19:09.541Z,51.58
2023-02-19T15:21:47.612Z,50.61
2023-02-19T15:24:22.106Z,51.47
2023-02-19T15:26:59.177Z,51.45
2023-02-19T15:29:33.328Z,51.28
2023-02-19T15:32:05.177Z,50.23
2023-02-19T15:34:37.019Z,51.69
2023-02-19T15:37:16.188Z,52.67
2023-02-19T15:39:50.680Z,52.15
2023-02-19T15:42:28.653Z,51.89
2023-02-19T15:45:06.528Z,50.88
2023-02-19T15:47:42.498Z,51.80
2023-02-19T15:50:18.722Z,52.02
2023-02-19T15:52:53.285Z,52.87
2023-02-19T15:55:35.406Z,52.22
2023-02-19T15:58:19.772Z,51.82
2023-02-19T16:00:56.513Z,52.73
2023-02-19T16:03:33.412Z,51.45
2023-02-19T16:06:25.803Z,51.51
2023-02-19T16:09:05.996Z,52.42
2023-02-19T16:11:39.993Z,53.76
2023-02-19T16:14:34.368Z,52.08
2023-02-19T16:17:15.813Z,51.86
2023-02-19T16:19:50.486Z,51.88
2023-02-19T16:22:25.130Z,52.35
2023-02-19T16:24:59.265Z,53.40
2023-02-19T16:27:34.449Z,53.83
2023-02-19T16:30:13.031Z,51.88
2023-02-19T16:32:47.086Z,52.35
2023-02-19T16:35:40.064Z,54.69
2023-02-19T16:38:16.973Z,54.24
2023-02-19T16:41:16.587Z,54.46
2023-02-19T16:43:48.656Z,53.47
2023-02-19T16:46:23.110Z,54.48
2023-02-19T16:48:55.227Z,53.57
2023-02-19T16:51:29.486Z,53.95
2023-02-19T16:54:01.471Z,53.66
2023-02-19T16:56:33.286Z,53.53
2023-02-19T16:59:05.249Z,52.87
2023-02-19T17:01:40.466Z,52.82
2023-02-19T17:04:16.242Z,55.19
2023-02-19T17:06:48.108Z,54.04
2023-02-19T17:09:20.206Z,53.52
2023-02-19T17:11:52.049Z,57.21
2023-02-19T17:14:24.009Z,55.53
2023-02-19T17:17:00.447Z,54.45
2023-02-19T17:19:33.808Z,53.94
2023-02-19T17:22:05.751Z,53.40
2023-02-19T17:24:37.808Z,53.89
2023-02-19T17:27:13.550Z,56.77
2023-02-19T17:29:45.559Z,58.22
2023-02-19T17:32:19.881Z,56.41
2023-02-19T17:34:51.998Z,59.13
2023-02-19T17:37:23.568Z,59.70
2023-02-19T17:39:55.803Z,57.12
2023-02-19T17:42:27.598Z,56.99
2023-02-19T17:44:59.675Z,56.93
2023-02-19T17:47:50.616Z,57.25
2023-02-19T17:50:25.336Z,55.95
2023-02-19T17:52:57.062Z,55.98
2023-02-19T17:55:30.265Z,59.21
2023-02-19T17:58:01.856Z,59.12
2023-02-19T18:00:35.549Z,60.46
2023-02-19T18:03:10.749Z,61.67
2023-02-19T18:05:43.091Z,61.22
2023-02-19T18:08:15.148Z,62.18
2023-02-19T18:10:47.448Z,61.62
2023-02-19T18:13:19.346Z,61.97
2023-02-19T18:15:51.647Z,59.81
2023-02-19T18:18:44.583Z,60.86
2023-02-19T18:21:17.266Z,59.45
2023-02-19T18:23:50.219Z,60.62
2023-02-19T18:26:24.934Z,59.51
2023-02-19T18:28:56.920Z,58.89
2023-02-19T18:31:29.332Z,62.06
2023-02-19T18:34:04.000Z,61.79
2023-02-19T18:36:36.361Z,62.01
2023-02-19T18:39:08.385Z,60.92
2023-02-19T18:41:40.658Z,59.85
2023-02-19T18:44:12.605Z,61.94
2023-02-19T18:46:45.802Z,61.62
2023-02-19T18:49:21.260Z,60.11
2023-02-19T18:51:53.707Z,59.77
2023-02-19T18:54:26.918Z,59.85
2023-02-19T18:57:00.982Z,59.96
2023-02-19T18:59:32.968Z,62.48
2023-02-19T19:02:07.960Z,63.11
2023-02-19T19:04:43.372Z,62.47
2023-02-19T19:07:15.970Z,60.89
2023-02-19T19:09:47.841Z,61.32
2023-02-19T19:12:20.687Z,61.54
2023-02-19T19:14:53.613Z,62.34
2023-02-19T19:17:26.045Z,61.06
2023-02-19T19:20:00.793Z,62.45
2023-02-19T19:22:33.194Z,63.78
2023-02-19T19:25:05.490Z,65.23
2023-02-19T19:27:38.283Z,66.81
2023-02-19T19:30:17.770Z,67.49
2023-02-19T19:32:52.395Z,66.75
2023-02-19T19:35:28.924Z,66.10
2023-02-19T19:38:01.281Z,63.79
2023-02-19T19:40:33.603Z,65.34
2023-02-19T19:43:06.518Z,64.10
2023-02-19T19:45:38.587Z,65.06
2023-02-19T19:48:10.862Z,66.20
2023-02-19T19:50:45.542Z,65.55
2023-02-19T19:53:18.480Z,64.78
2023-02-19T19:55:50.398Z,63.60
2023-02-19T19:58:25.087Z,63.29
2023-02-19T20:01:06.282Z,63.30
2023-02-19T20:03:38.749Z,63.29
2023-02-19T20:06:13.331Z,63.60
2023-02-19T20:08:45.720Z,63.53
2023-02-19T20:11:17.510Z,64.59
2023-02-19T20:13:49.630Z,64.09
2023-02-19T20:16:27.139Z,64.17
2023-02-19T20:18:59.276Z,64.40
2023-02-19T20:21:33.951Z,64.57
2023-02-19T20:24:06.164Z,65.09
2023-02-19T20:26:37.934Z,64.74
2023-02-19T20:29:11.627Z,64.50
2023-02-19T20:31:43.404Z,64.86
2023-02-19T20:34:15.365Z,65.19
2023-02-19T20:36:51.584Z,65.61
2023-02-19T20:39:29.149Z,65.20
2023-02-19T20:42:02.582Z,65.09
2023-02-19T20:44:35.005Z,66.78
2023-02-19T20:47:07.211Z,69.23
2023-02-19T20:49:39.454Z,69.71
2023-02-19T20:52:14.011Z,70.37
2023-02-19T20:54:46.389Z,70.88
2023-02-19T20:57:18.590Z,71.00
2023-02-19T20:59:50.814Z,69.88
2023-02-19T21:02:24.821Z,69.09
2023-02-19T21:04:57.356Z,70.67
2023-02-19T21:07:32.010Z,71.49
2023-02-19T21:10:04.061Z,68.92
2023-02-19T21:12:36.907Z,68.80
2023-02-19T21:15:09.866Z,70.55
2023-02-19T21:17:41.983Z,70.38
2023-02-19T21:20:14.867Z,72.05
2023-02-19T21:22:50.552Z,71.09
2023-02-19T21:25:22.661Z,70.16
2023-02-19T21:27:54.499Z,70.43
2023-02-19T21:30:26.621Z,69.87
2023-02-19T21:32:58.440Z,69.99
2023-02-19T21:35:31.117Z,70.08
2023-02-19T21:38:05.952Z,70.64
2023-02-19T21:40:38.032Z,71.40
2023-02-19T21:43:09.740Z,70.85
2023-02-19T21:45:42.981Z,71.99
2023-02-19T21:48:14.833Z,71.91
2023-02-19T21:50:47.679Z,71.43
2023-02-19T21:53:21.977Z,71.65
2023-02-19T21:55:58.708Z,72.84
2023-02-19T21:58:30.841Z,73.68
2023-02-19T22:01:03.105Z,74.08
2023-02-19T22:03:35.109Z,73.96
2023-02-19T22:06:07.851Z,75.07
2023-02-19T22:08:42.450Z,75.39
2023-02-19T22:11:15.097Z,73.46
2023-02-19T22:13:47.571Z,71.00
2023-02-19T22:16:20.762Z,71.83
2023-02-19T22:18:54.969Z,72.98
2023-02-19T22:21:32.673Z,73.77
2023-02-19T22:24:08.151Z,75.42
2023-02-19T22:26:40.712Z,73.64
2023-02-19T22:29:15.469Z,73.36
2023-02-19T22:31:48.130Z,74.24
2023-02-19T22:34:20.874Z,73.49
2023-02-19T22:36:53.620Z,76.74
2023-02-19T22:39:30.300Z,76.44
2023-02-19T22:42:02.971Z,76.60
2023-02-19T22:44:35.652Z,75.03
2023-02-19T22:47:08.426Z,75.43
2023-02-19T22:49:43.861Z,74.40
2023-02-19T22:52:17.382Z,75.03
2023-02-19T22:54:55.591Z,76.26
2023-02-19T22:57:29.093Z,78.00
2023-02-19T23:00:03.655Z,76.43
2023-02-19T23:02:36.255Z,76.25
2023-02-19T23:05:08.879Z,77.31
2023-02-19T23:07:41.277Z,75.95
2023-02-19T23:10:17.001Z,76.94
2023-02-19T23:12:49.537Z,77.22
2023-02-19T23:15:21.797Z,75.55
2023-02-19T23:17:54.328Z,78.84
2023-02-19T23:20:26.659Z,78.12
2023-02-19T23:22:59.258Z,77.65
2023-02-19T23:25:33.999Z,76.88
2023-02-19T23:28:06.985Z,76.32
2023-02-19T23:30:39.142Z,76.79
2023-02-19T23:33:11.725Z,78.80
2023-02-19T23:35:43.921Z,77.37
2023-02-19T23:38:16.477Z,77.02
2023-02-19T23:40:51.454Z,76.16
2023-02-19T23:43:24.433Z,76.99
2023-02-19T23:45:57.345Z,77.53
2023-02-19T23:48:29.813Z,77.91
2023-02-19T23:51:02.624Z,77.02
2023-02-19T23:53:35.291Z,76.45
2023-02-19T23:56:10.841Z,76.44
2023-02-19T23:58:43.672Z,76.75
